createdAt,value
2018-02-08T00:01:47.796Z,-4.10
2018-02-08T00:04:16.861Z,-4.20
2018-02-08T00:06:46.611Z,-4.20
2018-02-08T00:09:16.012Z,-4.20
2018-02-08T00:11:44.956Z,-4.20
2018-02-08T00:14:13.955Z,-4.30
2018-02-08T00:16:43.326Z,-4.30
2018-02-08T00:19:12.549Z,-4.20
2018-02-08T00:21:42.344Z,-4.20
2018-02-08T00:24:11.309Z,-4.20
2018-02-08T00:26:40.288Z,-4.20
2018-02-08T00:29:09.309Z,-4.30
2018-02-08T00:31:38.272Z,-4.30
2018-02-08T00:34:08.692Z,-4.30
2018-02-08T00:36:39.911Z,-4.30
2018-02-08T00:39:09.584Z,-4.30
2018-02-08T00:41:38.578Z,-4.30
2018-02-08T00:44:07.560Z,-4.20
2018-02-08T00:46:37.354Z,-4.30
2018-02-08T00:49:06.318Z,-4.50
2018-02-08T00:51:35.297Z,-4.50
2018-02-08T00:54:04.657Z,-4.40
2018-02-08T00:56:33.617Z,-4.40
2018-02-08T00:59:02.685Z,-4.40
2018-02-08T01:01:33.172Z,-4.40
2018-02-08T01:04:02.556Z,-4.60
2018-02-08T01:06:31.502Z,-4.60
2018-02-08T01:09:01.293Z,-4.60
2018-02-08T01:11:31.405Z,-4.60
2018-02-08T01:14:00.329Z,-4.70
2018-02-08T01:16:30.086Z,-4.60
2018-02-08T01:18:59.058Z,-4.50
2018-02-08T01:21:28.416Z,-4.90
2018-02-08T01:23:57.412Z,-4.50
2018-02-08T01:26:27.337Z,-4.50
2018-02-08T01:28:56.319Z,-4.50
2018-02-08T01:31:25.309Z,-4.50
2018-02-08T01:33:54.269Z,-4.60
2018-02-08T01:36:23.244Z,-4.70
2018-02-08T01:38:52.992Z,-4.70
2018-02-08T01:41:22.010Z,-4.70
2018-02-08T01:43:51.790Z,-4.80
2018-02-08T01:46:20.849Z,-4.90
2018-02-08T01:48:50.196Z,-4.80
2018-02-08T01:51:20.017Z,-4.70
2018-02-08T01:53:49.002Z,-4.80
2018-02-08T01:56:17.957Z,-4.80
2018-02-08T01:58:46.991Z,-4.90
2018-02-08T02:01:15.938Z,-4.80
2018-02-08T02:03:44.889Z,-4.70
2018-02-08T02:06:14.648Z,-4.70
2018-02-08T02:08:43.624Z,-4.60
2018-02-08T02:11:12.787Z,-4.70
2018-02-08T02:13:42.517Z,-4.70
2018-02-08T02:16:11.573Z,-4.80
2018-02-08T02:18:40.625Z,-4.80
2018-02-08T02:21:09.574Z,-4.90
2018-02-08T02:23:39.314Z,-4.80
2018-02-08T02:26:08.289Z,-4.80
2018-02-08T02:28:37.373Z,-4.70
2018-02-08T02:31:06.314Z,-4.70
2018-02-08T02:33:35.665Z,-4.70
2018-02-08T02:36:05.396Z,-4.80
2018-02-08T02:38:34.395Z,-4.80
2018-02-08T02:41:03.420Z,-4.80
2018-02-08T02:43:33.169Z,-4.80
2018-02-08T02:46:03.079Z,-4.80
2018-02-08T02:48:32.812Z,-4.80
2018-02-08T02:51:01.796Z,-4.80
2018-02-08T02:53:30.761Z,-4.80
2018-02-08T02:55:59.769Z,-4.80
2018-02-08T02:58:28.730Z,-4.80
2018-02-08T03:00:57.689Z,-4.70
2018-02-08T03:03:26.713Z,-4.80
2018-02-08T03:05:55.674Z,-4.70
2018-02-08T03:08:24.681Z,-4.70
2018-02-08T03:10:53.626Z,-4.70
2018-02-08T03:13:23.434Z,-4.70
2018-02-08T03:15:52.446Z,-4.70
2018-02-08T03:18:21.808Z,-4.70
2018-02-08T03:20:50.792Z,-4.70
2018-02-08T03:23:19.775Z,-4.70
2018-02-08T03:25:48.860Z,-4.80
2018-02-08T03:28:17.846Z,-4.80
2018-02-08T03:31:04.609Z,-4.80
2018-02-08T03:33:34.320Z,-4.80
2018-02-08T03:36:04.201Z,-4.80
2018-02-08T03:38:33.172Z,-4.80
2018-02-08T03:41:02.578Z,-4.90
2018-02-08T03:43:31.532Z,-4.80
2018-02-08T03:46:00.647Z,-4.80
2018-02-08T03:48:29.591Z,-5.00
2018-02-08T03:50:59.419Z,-5.10
2018-02-08T03:53:28.353Z,-5.10
2018-02-08T03:55:57.343Z,-5.10
2018-02-08T03:58:26.289Z,-5.10
2018-02-08T04:00:56.049Z,-5.00
2018-02-08T04:03:25.000Z,-4.90
2018-02-08T04:05:54.750Z,-4.90
2018-02-08T04:08:23.733Z,-4.80
2018-02-08T04:10:52.693Z,-4.90
2018-02-08T04:13:22.489Z,-4.90
2018-02-08T04:15:52.260Z,-4.90
2018-02-08T04:18:21.265Z,-4.90
2018-02-08T04:20:50.237Z,-4.90
2018-02-08T04:23:19.617Z,-4.90
2018-02-08T04:25:49.327Z,-4.80
2018-02-08T04:28:18.355Z,-4.90
2018-02-08T04:30:47.302Z,-4.80
2018-02-08T04:33:16.281Z,-4.90
2018-02-08T04:35:46.044Z,-4.90
2018-02-08T04:38:17.974Z,-4.90
2018-02-08T04:40:58.970Z,-4.80
2018-02-08T04:43:39.949Z,-4.80
2018-02-08T04:46:21.220Z,-4.80
2018-02-08T04:48:50.192Z,-4.80
2018-02-08T04:51:19.158Z,-4.80
2018-02-08T04:53:48.229Z,-4.90
2018-02-08T04:56:17.242Z,-5.00
2018-02-08T04:58:46.956Z,-5.10
2018-02-08T05:01:16.703Z,-5.00
2018-02-08T05:03:45.697Z,-5.10
2018-02-08T05:06:14.683Z,-5.10
2018-02-08T05:08:43.627Z,-5.10
2018-02-08T05:11:12.592Z,-5.10
2018-02-08T05:13:41.681Z,-5.10
2018-02-08T05:16:10.647Z,-4.90
2018-02-08T05:18:40.017Z,-4.90
2018-02-08T05:21:09.028Z,-4.90
2018-02-08T05:23:38.767Z,-5.00
2018-02-08T05:26:07.721Z,-5.00
2018-02-08T05:28:37.491Z,-5.00
2018-02-08T05:31:06.629Z,-5.00
2018-02-08T05:33:36.747Z,-5.00
2018-02-08T05:36:06.557Z,-5.00
2018-02-08T05:38:35.624Z,-5.00
2018-02-08T05:41:04.989Z,-4.90
2018-02-08T05:43:33.990Z,-5.00
2018-02-08T05:46:03.041Z,-5.10
2018-02-08T05:48:31.983Z,-5.20
2018-02-08T05:51:00.991Z,-5.20
2018-02-08T05:53:29.987Z,-5.20
2018-02-08T05:55:58.941Z,-5.20
2018-02-08T05:58:27.987Z,-5.10
2018-02-08T06:00:57.366Z,-5.00
2018-02-08T06:03:26.319Z,-4.90
2018-02-08T06:05:55.305Z,-4.90
2018-02-08T06:08:25.065Z,-4.90
2018-02-08T06:10:54.807Z,-4.90
2018-02-08T06:13:23.788Z,-5.50
2018-02-08T06:15:52.808Z,-4.90
2018-02-08T06:18:21.758Z,-4.90
2018-02-08T06:20:50.815Z,-4.90
2018-02-08T06:23:19.825Z,-4.90
2018-02-08T06:25:49.190Z,-5.00
2018-02-08T06:28:18.177Z,-5.00
2018-02-08T06:30:47.918Z,-5.10
2018-02-08T06:33:18.094Z,-5.00
2018-02-08T06:35:47.835Z,-5.00
2018-02-08T06:38:16.924Z,-5.10
2018-02-08T06:40:45.875Z,-5.20
2018-02-08T06:43:14.892Z,-5.20
2018-02-08T06:45:43.823Z,-5.10
2018-02-08T06:48:13.257Z,-5.10
2018-02-08T06:50:42.254Z,-5.10
2018-02-08T06:53:11.632Z,-5.20
2018-02-08T06:55:40.767Z,-4.50
2018-02-08T06:58:10.112Z,-5.20
2018-02-08T07:00:39.525Z,-5.10
2018-02-08T07:03:08.540Z,-5.10
2018-02-08T07:05:37.557Z,-5.10
2018-02-08T07:08:08.754Z,-5.10
2018-02-08T07:10:37.762Z,-5.00
2018-02-08T07:13:06.972Z,-5.00
2018-02-08T07:15:37.156Z,-5.00
2018-02-08T07:18:06.888Z,-4.80
2018-02-08T07:20:37.409Z,-4.70
2018-02-08T07:23:06.380Z,-4.70
2018-02-08T07:25:39.683Z,-4.70
2018-02-08T07:28:09.410Z,-4.70
2018-02-08T07:30:39.534Z,-4.60
2018-02-08T07:33:08.568Z,-4.50
2018-02-08T07:35:38.885Z,-4.50
2018-02-08T07:38:09.433Z,-4.40
2018-02-08T07:40:38.776Z,-4.40
2018-02-08T07:43:07.831Z,-4.40
2018-02-08T07:45:38.078Z,-4.30
2018-02-08T07:48:08.714Z,-4.30
2018-02-08T07:50:39.043Z,-4.30
2018-02-08T07:53:09.578Z,-4.20
2018-02-08T07:55:38.706Z,-4.20
2018-02-08T07:58:08.532Z,-4.10
2018-02-08T08:00:37.532Z,-4.10
2018-02-08T08:03:06.963Z,-4.10
2018-02-08T08:05:36.313Z,-4.00
2018-02-08T08:08:07.036Z,-3.90
2018-02-08T08:10:36.791Z,-3.80
2018-02-08T08:13:08.073Z,-3.80
2018-02-08T08:15:39.052Z,-3.80
2018-02-08T08:18:10.168Z,-3.60
2018-02-08T08:20:40.104Z,-3.60
2018-02-08T08:23:09.877Z,-3.50
2018-02-08T08:25:38.890Z,-3.30
2018-02-08T08:28:07.902Z,-3.20
2018-02-08T08:30:37.650Z,-3.10
2018-02-08T08:33:06.976Z,-2.90
2018-02-08T08:35:35.958Z,-2.80
2018-02-08T08:38:04.966Z,-2.70
2018-02-08T08:40:33.899Z,-2.60
2018-02-08T08:43:03.665Z,-2.50
2018-02-08T08:45:33.461Z,-2.40
2018-02-08T08:48:02.906Z,-2.30
2018-02-08T08:50:31.985Z,-2.30
2018-02-08T08:53:01.637Z,-2.20
2018-02-08T08:55:31.380Z,-2.20
2018-02-08T08:58:00.343Z,-2.10
2018-02-08T09:00:32.313Z,-1.90
2018-02-08T09:03:01.304Z,-1.80
2018-02-08T09:05:31.069Z,-1.70
2018-02-08T09:08:00.048Z,-1.60
2018-02-08T09:10:29.000Z,-1.50
2018-02-08T09:12:57.938Z,-1.30
2018-02-08T09:15:27.681Z,-1.10
2018-02-08T09:17:56.754Z,-1.00
2018-02-08T09:20:25.704Z,-0.90
2018-02-08T09:22:54.707Z,-0.80
2018-02-08T09:25:23.671Z,-0.70
2018-02-08T09:27:52.617Z,-0.60
2018-02-08T09:30:22.389Z,-0.40
2018-02-08T09:32:51.426Z,-0.30
2018-02-08T09:35:20.384Z,-0.30
2018-02-08T09:37:50.146Z,-0.30
2018-02-08T09:40:19.122Z,-0.20
2018-02-08T09:42:48.520Z,-0.20
2018-02-08T09:45:18.231Z,-0.10
2018-02-08T09:47:47.971Z,0.00
2018-02-08T09:50:16.952Z,0.00
2018-02-08T09:52:45.925Z,0.20
2018-02-08T09:55:15.632Z,0.30
2018-02-08T09:57:45.345Z,0.20
2018-02-08T10:00:15.233Z,0.20
2018-02-08T10:02:44.475Z,0.20
2018-02-08T10:05:13.424Z,0.30
2018-02-08T10:07:42.378Z,0.30
2018-02-08T10:10:11.351Z,0.50
2018-02-08T10:12:40.340Z,0.60
2018-02-08T10:15:09.770Z,0.60
2018-02-08T10:17:38.919Z,0.80
2018-02-08T10:20:08.682Z,0.90
2018-02-08T10:22:37.697Z,0.90
2018-02-08T10:25:08.185Z,1.00
2018-02-08T10:27:38.328Z,1.10
2018-02-08T10:30:07.713Z,1.20
2018-02-08T10:32:36.695Z,1.20
2018-02-08T10:35:10.855Z,1.20
2018-02-08T10:37:40.521Z,1.20
2018-02-08T10:40:10.312Z,1.10
2018-02-08T10:42:40.058Z,1.10
2018-02-08T10:45:09.417Z,0.90
2018-02-08T10:47:39.143Z,0.90
2018-02-08T10:50:08.525Z,1.00
2018-02-08T10:52:38.305Z,1.30
2018-02-08T10:55:07.262Z,1.20
2018-02-08T10:57:37.444Z,1.30
2018-02-08T11:00:07.284Z,1.30
2018-02-08T11:02:36.249Z,1.40
2018-02-08T11:05:06.002Z,1.40
2018-02-08T11:07:35.768Z,1.60
2018-02-08T11:10:04.711Z,1.80
2018-02-08T11:12:33.715Z,1.60
2018-02-08T11:15:03.807Z,1.70
2018-02-08T11:17:33.192Z,1.80
2018-02-08T11:20:02.154Z,1.80
2018-02-08T11:22:31.907Z,1.90
2018-02-08T11:25:00.900Z,2.00
2018-02-08T11:27:29.857Z,2.10
2018-02-08T11:29:59.591Z,2.10
2018-02-08T11:32:28.560Z,2.20
2018-02-08T11:34:58.385Z,2.30
2018-02-08T11:37:27.406Z,2.60
2018-02-08T11:39:57.083Z,2.60
2018-02-08T11:42:26.033Z,2.30
2018-02-08T11:44:55.417Z,2.60
2018-02-08T11:47:24.540Z,2.70
2018-02-08T11:49:53.897Z,2.70
2018-02-08T11:52:22.964Z,2.90
2018-02-08T11:54:52.717Z,2.80
2018-02-08T11:57:21.696Z,3.10
2018-02-08T11:59:50.686Z,3.30
2018-02-08T12:02:19.700Z,3.50
2018-02-08T12:04:48.693Z,3.40
2018-02-08T12:07:18.049Z,3.30
2018-02-08T12:09:47.041Z,3.20
2018-02-08T12:12:16.833Z,3.10
2018-02-08T12:14:46.583Z,3.20
2018-02-08T12:17:15.528Z,3.20
2018-02-08T12:19:44.499Z,3.40
2018-02-08T12:22:13.479Z,3.20
2018-02-08T12:24:43.651Z,3.30
2018-02-08T12:27:13.207Z,3.50
2018-02-08T12:29:42.207Z,4.10
2018-02-08T12:32:11.156Z,4.30
2018-02-08T12:34:40.143Z,4.60
2018-02-08T12:37:09.472Z,4.80
2018-02-08T12:39:38.628Z,5.30
2018-02-08T12:42:07.542Z,5.70
2018-02-08T12:44:36.517Z,6.40
2018-02-08T12:47:07.355Z,6.20
2018-02-08T12:49:36.345Z,6.10
2018-02-08T12:52:06.041Z,7.10
2018-02-08T12:54:35.384Z,8.00
2018-02-08T12:57:04.403Z,8.60
2018-02-08T12:59:33.500Z,8.40
2018-02-08T13:02:02.903Z,8.70
2018-02-08T13:04:31.948Z,9.00
2018-02-08T13:07:00.894Z,9.50
2018-02-08T13:09:29.882Z,10.40
2018-02-08T13:11:58.926Z,10.60
2018-02-08T13:14:27.946Z,8.90
2018-02-08T13:16:57.023Z,7.30
2018-02-08T13:19:26.103Z,7.50
2018-02-08T13:21:55.454Z,9.30
2018-02-08T13:24:24.861Z,9.40
2018-02-08T13:26:54.196Z,8.60
2018-02-08T13:29:23.962Z,7.80
2018-02-08T13:31:53.464Z,7.40
2018-02-08T13:34:23.208Z,6.20
2018-02-08T13:36:52.624Z,6.20
2018-02-08T13:39:41.152Z,6.50
2018-02-08T13:42:10.129Z,7.50
2018-02-08T13:44:39.822Z,7.60
2018-02-08T13:47:09.301Z,8.10
2018-02-08T13:49:40.806Z,8.20
2018-02-08T13:52:30.572Z,8.50
2018-02-08T13:55:15.182Z,8.80
2018-02-08T13:58:01.354Z,8.90
2018-02-08T14:00:36.349Z,8.40
2018-02-08T14:03:05.285Z,8.40
2018-02-08T14:05:35.032Z,9.00
2018-02-08T14:08:04.798Z,10.00
2018-02-08T14:10:34.722Z,10.50
2018-02-08T14:13:03.714Z,10.90
2018-02-08T14:15:33.452Z,9.90
2018-02-08T14:18:02.436Z,9.70
2018-02-08T14:20:31.476Z,10.00
2018-02-08T14:23:00.603Z,9.80
2018-02-08T14:25:30.376Z,9.80
2018-02-08T14:27:59.424Z,10.30
2018-02-08T14:30:29.184Z,10.60
2018-02-08T14:32:58.933Z,10.50
2018-02-08T14:35:28.707Z,10.00
2018-02-08T14:37:57.679Z,9.90
2018-02-08T14:40:26.745Z,9.70
2018-02-08T14:42:55.789Z,10.40
2018-02-08T14:45:24.984Z,10.30
2018-02-08T14:47:54.692Z,8.50
2018-02-08T14:50:23.696Z,7.90
2018-02-08T14:52:52.648Z,7.40
2018-02-08T14:55:21.632Z,7.00
2018-02-08T14:57:50.639Z,6.60
2018-02-08T15:00:19.609Z,7.00
2018-02-08T15:02:48.557Z,7.00
2018-02-08T15:05:19.106Z,7.20
2018-02-08T15:07:48.903Z,7.40
2018-02-08T15:10:18.818Z,8.10
2018-02-08T15:12:47.800Z,8.50
2018-02-08T15:15:16.781Z,8.50
2018-02-08T15:17:46.128Z,8.30
2018-02-08T15:20:15.701Z,6.80
2018-02-08T15:22:44.644Z,5.70
2018-02-08T15:25:14.965Z,4.80
2018-02-08T15:27:44.329Z,4.10
2018-02-08T15:30:13.343Z,3.20
2018-02-08T15:32:42.666Z,2.70
2018-02-08T15:35:11.987Z,2.40
2018-02-08T15:37:41.726Z,2.10
2018-02-08T15:40:10.784Z,1.80
2018-02-08T15:42:39.831Z,1.80
2018-02-08T15:45:09.656Z,1.70
2018-02-08T15:47:38.633Z,1.60
2018-02-08T15:50:07.578Z,1.50
2018-02-08T15:52:36.724Z,1.50
2018-02-08T15:55:05.726Z,1.30
2018-02-08T15:57:35.453Z,1.20
2018-02-08T16:00:06.264Z,1.10
2018-02-08T16:02:36.017Z,1.00
2018-02-08T16:05:05.013Z,0.80
2018-02-08T16:07:37.732Z,0.80
2018-02-08T16:10:06.717Z,0.70
2018-02-08T16:12:35.725Z,0.60
2018-02-08T16:15:04.692Z,0.50
2018-02-08T16:17:35.190Z,0.50
2018-02-08T16:20:04.150Z,0.40
2018-02-08T16:22:33.251Z,0.30
2018-02-08T16:25:02.214Z,0.30
2018-02-08T16:27:31.217Z,0.30
2018-02-08T16:30:00.998Z,0.20
2018-02-08T16:32:29.979Z,0.20
2018-02-08T16:34:59.710Z,0.10
2018-02-08T16:37:28.694Z,0.00
2018-02-08T16:39:57.668Z,-0.10
2018-02-08T16:42:26.652Z,-0.10
2018-02-08T16:44:55.637Z,-0.20
2018-02-08T16:47:24.633Z,-0.20
2018-02-08T16:49:54.949Z,-0.30
2018-02-08T16:52:23.924Z,-0.30
2018-02-08T16:54:53.402Z,-0.40
2018-02-08T16:57:23.168Z,-0.30
2018-02-08T16:59:52.537Z,-0.40
2018-02-08T17:02:21.683Z,-0.40
2018-02-08T17:04:51.386Z,-0.40
2018-02-08T17:07:20.369Z,-0.40
2018-02-08T17:09:50.134Z,-0.40
2018-02-08T17:12:19.854Z,-0.40
2018-02-08T17:14:48.906Z,-0.50
2018-02-08T17:17:18.654Z,-0.50
2018-02-08T17:19:47.755Z,-0.50
2018-02-08T17:22:16.707Z,-0.60
2018-02-08T17:24:45.754Z,-0.60
2018-02-08T17:27:14.745Z,-0.60
2018-02-08T17:29:43.963Z,-0.80
2018-02-08T17:32:13.176Z,-0.60
2018-02-08T17:34:42.137Z,-0.70
2018-02-08T17:37:11.118Z,-0.70
2018-02-08T17:39:40.525Z,-0.70
2018-02-08T17:42:09.501Z,-0.70
2018-02-08T17:44:38.492Z,-0.70
2018-02-08T17:47:08.236Z,-0.70
2018-02-08T17:49:37.243Z,-0.70
2018-02-08T17:52:06.635Z,-0.70
2018-02-08T17:54:36.722Z,-0.70
2018-02-08T17:57:06.580Z,-0.70
2018-02-08T17:59:35.585Z,-0.70
2018-02-08T18:02:04.575Z,-0.70
2018-02-08T18:04:34.786Z,-0.80
2018-02-08T18:07:04.590Z,-0.80
2018-02-08T18:09:33.566Z,-0.80
2018-02-08T18:12:02.594Z,-0.80
2018-02-08T18:14:31.585Z,-0.80
2018-02-08T18:17:00.990Z,-0.80
2018-02-08T18:19:31.053Z,-0.90
2018-02-08T18:22:00.365Z,-0.80
2018-02-08T18:24:29.512Z,-0.90
2018-02-08T18:26:58.487Z,-0.90
2018-02-08T18:29:27.881Z,-0.80
2018-02-08T18:31:57.274Z,-0.90
2018-02-08T18:34:26.241Z,-0.90
2018-02-08T18:36:56.036Z,-1.00
2018-02-08T18:39:25.068Z,-1.00
2018-02-08T18:41:54.060Z,-1.00
2018-02-08T18:44:23.061Z,-1.00
2018-02-08T18:46:52.919Z,-1.00
2018-02-08T18:49:22.669Z,-1.10
2018-02-08T18:51:52.861Z,-1.20
2018-02-08T18:54:22.586Z,-1.10
2018-02-08T18:56:51.602Z,-1.10
2018-02-08T18:59:20.994Z,-1.10
2018-02-08T19:01:50.011Z,-1.10
2018-02-08T19:04:21.166Z,-1.10
2018-02-08T19:06:50.214Z,-1.10
2018-02-08T19:09:20.471Z,-1.10
2018-02-08T19:11:50.246Z,-1.10
2018-02-08T19:14:19.277Z,-1.10
2018-02-08T19:16:48.701Z,-1.20
2018-02-08T19:19:17.735Z,-1.10
2018-02-08T19:21:46.762Z,-1.10
2018-02-08T19:24:15.764Z,-1.10
2018-02-08T19:26:45.541Z,-1.10
2018-02-08T19:29:14.515Z,-1.10
2018-02-08T19:31:43.566Z,-1.20
2018-02-08T19:34:12.588Z,-1.20
2018-02-08T19:36:42.499Z,-1.10
2018-02-08T19:39:12.274Z,-1.10
2018-02-08T19:41:41.325Z,-1.20
2018-02-08T19:44:11.693Z,-1.20
2018-02-08T19:46:41.540Z,-0.40
2018-02-08T19:49:10.960Z,-1.20
2018-02-08T19:51:40.412Z,-1.20
2018-02-08T19:54:09.420Z,-1.20
2018-02-08T19:56:39.970Z,-1.20
2018-02-08T19:59:09.749Z,-1.30
2018-02-08T20:01:39.422Z,-1.20
2018-02-08T20:04:08.521Z,-1.20
2018-02-08T20:06:37.550Z,-1.20
2018-02-08T20:09:07.942Z,-1.20
2018-02-08T20:11:38.106Z,-1.20
2018-02-08T20:14:14.412Z,-1.20
2018-02-08T20:16:43.464Z,-1.30
2018-02-08T20:19:13.188Z,-1.30
2018-02-08T20:21:42.823Z,-1.30
2018-02-08T20:24:12.792Z,-1.30
2018-02-08T20:26:41.829Z,-1.30
2018-02-08T20:29:12.137Z,-1.30
2018-02-08T20:31:41.958Z,-1.30
2018-02-08T20:34:11.040Z,-1.40
2018-02-08T20:36:40.803Z,-1.40
2018-02-08T20:39:09.838Z,-1.40
2018-02-08T20:41:39.201Z,-1.40
2018-02-08T20:44:08.421Z,-1.40
2018-02-08T20:46:37.414Z,-1.40
2018-02-08T20:49:06.408Z,-1.30
2018-02-08T20:51:37.088Z,-1.30
2018-02-08T20:54:06.676Z,-1.40
2018-02-08T20:56:35.725Z,0.50
2018-02-08T20:59:04.702Z,-1.40
2018-02-08T21:01:34.470Z,-1.40
2018-02-08T21:04:03.924Z,-1.40
2018-02-08T21:06:33.679Z,-1.50
2018-02-08T21:09:03.073Z,-1.50
2018-02-08T21:11:33.596Z,-1.60
2018-02-08T21:14:03.362Z,-1.50
2018-02-08T21:16:32.331Z,-1.60
2018-02-08T21:19:01.318Z,-1.50
2018-02-08T21:21:30.315Z,-1.50
2018-02-08T21:24:00.849Z,-1.60
2018-02-08T21:26:29.834Z,-1.60
2018-02-08T21:28:58.811Z,-1.70
2018-02-08T21:31:27.958Z,-1.60
2018-02-08T21:33:56.948Z,-1.60
2018-02-08T21:36:25.959Z,-1.60
2018-02-08T21:38:54.977Z,-1.60
2018-02-08T21:41:24.758Z,-1.60
2018-02-08T21:43:53.748Z,-1.60
2018-02-08T21:46:22.798Z,-1.70
2018-02-08T21:48:52.277Z,-1.60
2018-02-08T21:51:21.245Z,-1.60
2018-02-08T21:53:50.254Z,-1.70
2018-02-08T21:56:20.062Z,-1.70
2018-02-08T21:58:49.237Z,-1.70
2018-02-08T22:01:19.043Z,-1.70
2018-02-08T22:03:48.585Z,-1.60
2018-02-08T22:06:17.560Z,-1.60
2018-02-08T22:08:46.569Z,-1.60
2018-02-08T22:11:21.308Z,-1.60
2018-02-08T22:13:53.955Z,-1.70
2018-02-08T22:16:22.908Z,-1.70
2018-02-08T22:18:51.907Z,-1.10
2018-02-08T22:21:21.025Z,-1.70
2018-02-08T22:23:50.005Z,-1.70
2018-02-08T22:26:19.030Z,-1.70
2018-02-08T22:28:48.023Z,-1.70
2018-02-08T22:31:17.380Z,-1.70
2018-02-08T22:33:46.365Z,-1.70
2018-02-08T22:36:15.735Z,-1.60
2018-02-08T22:38:44.697Z,-1.70
2018-02-08T22:41:13.713Z,-1.60
2018-02-08T22:43:43.425Z,-1.70
2018-02-08T22:46:13.234Z,-1.70
2018-02-08T22:48:42.189Z,-1.70
2018-02-08T22:51:11.162Z,-1.70
2018-02-08T22:53:40.126Z,-1.70
2018-02-08T22:56:09.133Z,-1.80
2018-02-08T22:58:38.115Z,-1.80
2018-02-08T23:01:07.117Z,-1.80
2018-02-08T23:03:36.484Z,-1.80
2018-02-08T23:06:06.229Z,-1.80
2018-02-08T23:08:35.189Z,-1.80
2018-02-08T23:11:05.024Z,-1.80
2018-02-08T23:13:33.997Z,-1.90
2018-02-08T23:16:03.811Z,-1.80
2018-02-08T23:18:32.808Z,-1.80
2018-02-08T23:21:02.198Z,-1.90
2018-02-08T23:23:31.921Z,-1.90
2018-02-08T23:26:00.912Z,-1.90
2018-02-08T23:28:30.236Z,-1.90
2018-02-08T23:30:59.223Z,-1.90
2018-02-08T23:33:28.243Z,-1.90
2018-02-08T23:35:57.595Z,-2.00
2018-02-08T23:38:26.580Z,-1.90
2018-02-08T23:40:56.439Z,-2.00
2018-02-08T23:43:25.405Z,-2.10
2018-02-08T23:45:55.142Z,-2.00
2018-02-08T23:48:24.190Z,-1.90
2018-02-08T23:50:53.156Z,-2.00
2018-02-08T23:53:22.142Z,-2.00
2018-02-08T23:55:51.500Z,-2.10
2018-02-08T23:58:20.478Z,-2.10
